Time;durP1;ratioP1;P1;durP2;ratioP2;P2;SDS_P1;SDS_P2;PMS_P1;PMS_P2;Temp;Humidity;BMP_temperature;BMP_pressure;BME280_temperature;BME280_humidity;BME280_pressure;Samples;Min_cycle;Max_cycle;Signal;HPM_P1;HPM_P2
2024/03/20 00:00:25;;;;;;;15.40;5.90;;;12.50;99.90;;;;;;5043701;28;20215;-69
2024/03/20 00:02:51;;;;;;;14.25;5.88;;;12.40;99.90;;;;;;5043760;28;20176;-70
2024/03/20 00:05:17;;;;;;;11.30;5.78;;;12.50;99.90;;;;;;5043584;28;20213;-70
2024/03/20 00:07:42;;;;;;;15.77;6.30;;;12.50;99.90;;;;;;5043482;28;20276;-69
2024/03/20 00:10:12;;;;;;;15.70;6.07;;;12.40;99.90;;;;;;5043492;28;20190;-69
2024/03/20 00:12:41;;;;;;;14.95;6.13;;;12.40;99.90;;;;;;5043704;28;20227;-69
2024/03/20 00:15:08;;;;;;;14.82;6.03;;;12.40;99.90;;;;;;5043782;28;20190;-69
2024/03/20 00:17:34;;;;;;;16.27;5.97;;;12.40;99.90;;;;;;5058099;28;20267;-68
2024/03/20 00:20:01;;;;;;;16.50;5.68;;;12.40;99.90;;;;;;5043533;28;20222;-68
2024/03/20 00:22:30;;;;;;;14.82;5.95;;;12.40;99.90;;;;;;5042893;28;20551;-69
2024/03/20 00:24:56;;;;;;;15.75;6.85;;;12.40;99.90;;;;;;5042578;28;20814;-68
2024/03/20 00:27:22;;;;;;;14.18;5.78;;;12.40;99.90;;;;;;5042248;28;20230;-72
2024/03/20 00:29:48;;;;;;;19.05;5.82;;;12.40;99.90;;;;;;5043163;28;20191;-69
2024/03/20 00:32:14;;;;;;;15.57;5.53;;;12.40;99.90;;;;;;5042958;28;20219;-68
2024/03/20 00:34:40;;;;;;;15.80;5.97;;;12.40;99.90;;;;;;5043383;28;20219;-70
2024/03/20 00:37:06;;;;;;;11.77;5.80;;;12.40;99.90;;;;;;5043524;28;20229;-71
2024/03/20 00:39:31;;;;;;;14.65;5.93;;;12.30;99.90;;;;;;5042892;28;20195;-71
2024/03/20 00:41:57;;;;;;;14.13;5.78;;;12.40;99.90;;;;;;5042959;28;20564;-72
2024/03/20 00:44:23;;;;;;;17.25;5.85;;;12.40;99.90;;;;;;5043087;28;20663;-67
2024/03/20 00:46:48;;;;;;;15.35;5.93;;;12.40;99.90;;;;;;5057633;28;20198;-71
2024/03/20 00:49:14;;;;;;;19.13;5.75;;;12.30;99.90;;;;;;5042739;28;20183;-69
2024/03/20 00:51:40;;;;;;;17.10;6.00;;;12.40;99.90;;;;;;5058111;28;20199;-70
2024/03/20 00:54:06;;;;;;;16.60;6.40;;;12.40;99.90;;;;;;5041717;28;20191;-69
2024/03/20 00:56:32;;;;;;;15.02;6.18;;;12.40;99.90;;;;;;5043044;28;20222;-67
2024/03/20 00:58:58;;;;;;;16.98;6.22;;;12.30;99.90;;;;;;5057284;28;20184;-69
2024/03/20 01:01:24;;;;;;;17.02;6.07;;;12.40;99.90;;;;;;5042505;28;20241;-71
2024/03/20 01:03:50;;;;;;;16.20;6.50;;;12.30;99.90;;;;;;5041335;28;20183;-70
2024/03/20 01:06:16;;;;;;;15.18;6.22;;;12.30;99.90;;;;;;5042037;28;20202;-69
2024/03/20 01:08:43;;;;;;;19.50;6.25;;;12.30;99.90;;;;;;5042906;28;20199;-68
2024/03/20 01:11:09;;;;;;;15.50;5.75;;;12.30;99.90;;;;;;5040892;28;20187;-70
2024/03/20 01:13:35;;;;;;;18.20;6.28;;;12.30;99.90;;;;;;5042375;28;20213;-70
2024/03/20 01:16:01;;;;;;;18.63;6.85;;;12.20;99.90;;;;;;5042115;28;20214;-68
2024/03/20 01:18:27;;;;;;;16.98;6.10;;;12.20;99.90;;;;;;5042915;28;20552;-69
2024/03/20 01:20:52;;;;;;;14.00;6.32;;;12.20;99.90;;;;;;5043017;28;20183;-71
2024/03/20 01:23:19;;;;;;;14.30;6.45;;;12.20;99.90;;;;;;5042482;28;20549;-70
2024/03/20 01:25:45;;;;;;;15.07;6.20;;;12.20;99.90;;;;;;5042172;28;20203;-69
2024/03/20 01:28:11;;;;;;;18.42;5.90;;;12.20;99.90;;;;;;5040846;28;20651;-70
2024/03/20 01:30:37;;;;;;;20.30;7.15;;;12.20;99.90;;;;;;5042096;28;20187;-71
2024/03/20 01:33:02;;;;;;;15.57;6.97;;;12.10;99.90;;;;;;5041769;28;20199;-69
2024/03/20 01:35:28;;;;;;;18.02;7.18;;;12.10;99.90;;;;;;5041852;28;20218;-69
2024/03/20 01:37:54;;;;;;;17.90;7.47;;;12.10;99.90;;;;;;5042548;28;20237;-69
2024/03/20 01:40:20;;;;;;;16.25;7.22;;;12.10;99.90;;;;;;5042071;28;20187;-71
2024/03/20 01:42:45;;;;;;;15.80;7.35;;;12.00;99.90;;;;;;5041199;28;20243;-68
2024/03/20 01:45:17;;;;;;;19.48;7.85;;;12.10;99.90;;;;;;5041863;28;20336;-70
2024/03/20 01:47:45;;;;;;;17.27;8.30;;;12.00;99.90;;;;;;5042050;28;20180;-68
2024/03/20 01:50:11;;;;;;;19.77;7.65;;;12.00;99.90;;;;;;5042160;28;20191;-68
2024/03/20 01:52:52;;;;;;;23.48;8.60;;;12.00;99.90;;;;;;5042602;28;20187;-69
2024/03/20 01:55:20;;;;;;;22.40;8.70;;;11.90;99.90;;;;;;5041457;28;20190;-68
2024/03/20 01:57:46;;;;;;;21.38;9.38;;;11.90;99.90;;;;;;5041085;28;20278;-68
2024/03/20 02:00:13;;;;;;;17.08;8.95;;;11.90;99.90;;;;;;5038724;28;20742;-72
2024/03/20 02:02:42;;;;;;;17.85;8.65;;;11.90;99.90;;;;;;5041648;28;20203;-70
2024/03/20 02:05:08;;;;;;;20.30;9.45;;;11.90;99.90;;;;;;5041593;28;20176;-71
2024/03/20 02:07:33;;;;;;;23.55;9.13;;;11.80;99.90;;;;;;5040090;28;20199;-70
2024/03/20 02:09:59;;;;;;;20.58;8.45;;;11.90;99.90;;;;;;5040305;28;20212;-70
2024/03/20 02:12:25;;;;;;;19.17;9.50;;;11.90;99.90;;;;;;5040159;28;20314;-69
2024/03/20 02:14:51;;;;;;;21.92;8.90;;;11.80;99.90;;;;;;5042116;28;20268;-70
2024/03/20 02:17:17;;;;;;;17.63;8.90;;;11.80;99.90;;;;;;5041047;28;20238;-70
2024/03/20 02:19:43;;;;;;;20.08;8.70;;;11.80;99.90;;;;;;5042001;28;20214;-70
2024/03/20 02:22:09;;;;;;;24.75;9.75;;;11.70;99.90;;;;;;5039642;28;20211;-70
2024/03/20 02:24:35;;;;;;;25.60;9.95;;;11.70;99.90;;;;;;5039404;28;20251;-70
2024/03/20 02:27:01;;;;;;;22.48;9.50;;;11.60;99.90;;;;;;5056890;28;20206;-72
2024/03/20 02:29:27;;;;;;;19.38;8.63;;;11.60;99.90;;;;;;5057355;28;20667;-71
2024/03/20 02:31:53;;;;;;;20.92;9.90;;;11.60;99.90;;;;;;5056524;28;20191;-70
2024/03/20 02:34:19;;;;;;;23.98;10.55;;;11.60;99.90;;;;;;5041785;28;20227;-71
2024/03/20 02:36:46;;;;;;;21.17;9.88;;;11.60;99.90;;;;;;5041701;28;20225;-68
2024/03/20 02:39:13;;;;;;;24.08;9.90;;;11.60;99.90;;;;;;5041461;28;20228;-69
2024/03/20 02:41:39;;;;;;;20.85;9.93;;;11.50;99.90;;;;;;5041679;28;20284;-70
2024/03/20 02:44:04;;;;;;;22.55;10.00;;;11.60;99.90;;;;;;5041324;28;20241;-68
2024/03/20 02:46:30;;;;;;;25.42;10.10;;;11.60;99.90;;;;;;5041204;28;20273;-69
2024/03/20 02:48:56;;;;;;;25.23;10.10;;;11.60;99.90;;;;;;5039110;28;20187;-70
2024/03/20 02:51:21;;;;;;;19.30;9.98;;;11.60;99.90;;;;;;5040059;28;20196;-69
2024/03/20 02:53:47;;;;;;;19.30;10.45;;;11.60;99.90;;;;;;5041020;28;20648;-70
2024/03/20 02:56:13;;;;;;;16.90;9.45;;;11.60;99.90;;;;;;5043791;28;20210;-70
2024/03/20 02:58:39;;;;;;;21.30;9.38;;;11.70;99.90;;;;;;5044923;28;20198;-69
2024/03/20 03:01:05;;;;;;;24.52;10.07;;;11.70;99.90;;;;;;5044387;28;20191;-69
2024/03/20 03:03:30;;;;;;;24.13;10.00;;;11.70;99.90;;;;;;5044826;28;20195;-71
2024/03/20 03:05:56;;;;;;;22.13;10.10;;;11.70;99.90;;;;;;5059137;28;20303;-69
2024/03/20 03:08:22;;;;;;;25.77;9.85;;;11.70;99.90;;;;;;5043667;28;20195;-67
2024/03/20 03:10:47;;;;;;;23.20;10.35;;;11.70;99.90;;;;;;5044938;28;20202;-69
2024/03/20 03:13:13;;;;;;;21.08;10.30;;;11.70;99.90;;;;;;5044100;28;20231;-68
2024/03/20 03:15:39;;;;;;;21.50;10.02;;;11.70;99.90;;;;;;5043374;28;20215;-68
2024/03/20 03:18:05;;;;;;;24.85;10.43;;;11.70;99.90;;;;;;5043791;28;20184;-69
2024/03/20 03:20:30;;;;;;;22.85;9.82;;;11.70;99.90;;;;;;5044273;28;20233;-69
2024/03/20 03:22:56;;;;;;;21.33;9.52;;;11.70;99.90;;;;;;5044081;28;20719;-69
2024/03/20 03:25:22;;;;;;;25.52;9.70;;;11.70;99.90;;;;;;5044523;28;20289;-70
2024/03/20 03:27:48;;;;;;;21.45;9.85;;;11.70;99.90;;;;;;5044502;28;20262;-71
2024/03/20 03:30:14;;;;;;;22.45;9.80;;;11.70;99.90;;;;;;5044336;28;20636;-71
2024/03/20 03:32:40;;;;;;;24.20;10.18;;;11.70;99.90;;;;;;5044583;28;20187;-71
2024/03/20 03:35:07;;;;;;;19.90;10.63;;;11.70;99.90;;;;;;5042498;28;20207;-70
2024/03/20 03:37:33;;;;;;;20.70;10.30;;;11.70;99.90;;;;;;5044132;28;20247;-69
2024/03/20 03:40:00;;;;;;;23.13;9.80;;;11.70;99.90;;;;;;5045077;28;21403;-69
2024/03/20 03:42:29;;;;;;;22.70;9.80;;;11.70;99.90;;;;;;5044043;28;20207;-71
2024/03/20 03:44:54;;;;;;;21.60;10.20;;;11.70;99.90;;;;;;5044288;28;20184;-72
2024/03/20 03:47:21;;;;;;;19.65;10.18;;;11.60;99.90;;;;;;5044695;28;20662;-70
2024/03/20 03:49:47;;;;;;;21.63;9.45;;;11.60;99.90;;;;;;5042793;28;20615;-72
2024/03/20 03:52:13;;;;;;;21.00;9.93;;;11.60;99.90;;;;;;5044108;28;20199;-69
2024/03/20 03:54:40;;;;;;;18.15;9.52;;;11.60;99.90;;;;;;5043764;28;21168;-68
2024/03/20 03:57:06;;;;;;;21.70;10.10;;;11.60;99.90;;;;;;5043614;28;20210;-71
2024/03/20 03:59:31;;;;;;;20.98;9.60;;;11.60;99.90;;;;;;5044400;28;20210;-68
2024/03/20 04:01:57;;;;;;;23.83;10.75;;;11.60;99.90;;;;;;5059060;28;20215;-71
2024/03/20 04:04:23;;;;;;;19.02;9.52;;;11.50;99.90;;;;;;5044037;28;20188;-69
2024/03/20 04:06:48;;;;;;;17.73;9.93;;;11.50;99.90;;;;;;5042482;28;20602;-69
2024/03/20 04:09:14;;;;;;;21.50;9.90;;;11.50;99.90;;;;;;5042225;28;20217;-69
2024/03/20 04:11:40;;;;;;;28.50;10.90;;;11.50;99.90;;;;;;5042890;28;20251;-69
2024/03/20 04:14:07;;;;;;;21.67;10.15;;;11.50;99.90;;;;;;5043246;28;20202;-68
2024/03/20 04:16:34;;;;;;;21.08;9.70;;;11.40;99.90;;;;;;5043722;28;20425;-70
2024/03/20 04:19:00;;;;;;;24.77;10.60;;;11.40;99.90;;;;;;5043678;28;20260;-70
2024/03/20 04:21:26;;;;;;;28.75;10.85;;;11.40;99.90;;;;;;5044049;28;20191;-70
2024/03/20 04:23:52;;;;;;;24.30;10.70;;;11.40;99.90;;;;;;5043712;28;20175;-68
2024/03/20 04:26:19;;;;;;;24.08;11.30;;;11.40;99.90;;;;;;5043707;28;20183;-68
2024/03/20 04:28:46;;;;;;;21.55;10.98;;;11.30;99.90;;;;;;5044147;28;20245;-69
2024/03/20 04:31:15;;;;;;;21.77;11.13;;;11.30;99.90;;;;;;5043668;28;20194;-68
2024/03/20 04:33:42;;;;;;;24.30;10.77;;;11.30;99.90;;;;;;5042175;28;20248;-70
2024/03/20 04:36:08;;;;;;;22.15;11.13;;;11.30;99.90;;;;;;5042944;28;20301;-67
2024/03/20 04:38:36;;;;;;;23.00;11.02;;;11.30;99.90;;;;;;5043913;28;20187;-69
2024/03/20 04:41:04;;;;;;;21.42;10.88;;;11.30;99.90;;;;;;5041766;28;20606;-70
2024/03/20 04:43:30;;;;;;;21.67;10.70;;;11.30;99.90;;;;;;5038391;28;20640;-69
2024/03/20 04:45:56;;;;;;;24.80;11.50;;;11.30;99.90;;;;;;5043427;28;20608;-69
2024/03/20 04:48:22;;;;;;;26.27;11.70;;;11.30;99.90;;;;;;5043074;28;20187;-71
2024/03/20 04:50:48;;;;;;;25.83;11.30;;;11.30;99.90;;;;;;5040600;28;20204;-68
2024/03/20 04:53:13;;;;;;;29.25;10.82;;;11.30;99.90;;;;;;5040904;28;20221;-69
2024/03/20 04:55:39;;;;;;;22.08;11.10;;;11.30;99.90;;;;;;5042687;28;20215;-67
2024/03/20 04:58:05;;;;;;;24.77;11.63;;;11.30;99.90;;;;;;5043893;28;20195;-70
2024/03/20 05:00:31;;;;;;;21.25;10.68;;;11.30;99.90;;;;;;5043103;28;20203;-71
2024/03/20 05:02:57;;;;;;;19.38;10.45;;;11.30;99.90;;;;;;5043322;28;20257;-70
2024/03/20 05:05:23;;;;;;;24.98;11.02;;;11.30;99.90;;;;;;5041270;28;20194;-70
2024/03/20 05:07:48;;;;;;;22.73;11.25;;;11.30;99.90;;;;;;5042451;28;20596;-70
2024/03/20 05:10:16;;;;;;;20.33;10.95;;;11.30;99.90;;;;;;5043148;28;20249;-71
2024/03/20 05:12:42;;;;;;;21.77;10.15;;;11.30;99.90;;;;;;5042953;28;20944;-71
2024/03/20 05:15:08;;;;;;;17.92;10.07;;;11.30;99.90;;;;;;5042409;28;20195;-70
2024/03/20 05:17:34;;;;;;;25.38;9.80;;;11.30;99.90;;;;;;5041348;28;20687;-69
2024/03/20 05:19:59;;;;;;;24.05;10.63;;;11.20;99.90;;;;;;5042522;28;20198;-72
2024/03/20 05:22:25;;;;;;;21.63;10.35;;;11.20;99.90;;;;;;5040806;28;20187;-71
2024/03/20 05:24:51;;;;;;;22.88;10.25;;;11.30;99.90;;;;;;5042274;28;20227;-71
2024/03/20 05:27:17;;;;;;;22.90;10.70;;;11.20;99.90;;;;;;5041663;28;20199;-72
2024/03/20 05:29:43;;;;;;;24.25;10.85;;;11.20;99.90;;;;;;5042316;28;20202;-69
2024/03/20 05:32:09;;;;;;;18.73;10.27;;;11.20;99.90;;;;;;5041488;28;20210;-70
2024/03/20 05:34:35;;;;;;;25.02;11.05;;;11.20;99.90;;;;;;5042256;28;20215;-69
2024/03/20 05:37:01;;;;;;;30.50;11.10;;;11.10;99.90;;;;;;5024082;28;20207;-69
2024/03/20 05:39:26;;;;;;;21.02;11.50;;;11.10;99.90;;;;;;5042011;28;20601;-70
2024/03/20 05:41:53;;;;;;;23.63;11.55;;;11.10;99.90;;;;;;5040423;28;20191;-71
2024/03/20 05:44:22;;;;;;;24.50;12.02;;;11.10;99.90;;;;;;5042426;28;20535;-70
2024/03/20 05:46:51;;;;;;;23.48;10.93;;;11.10;99.90;;;;;;5038380;28;20202;-71
2024/03/20 05:49:20;;;;;;;25.65;11.88;;;11.10;99.90;;;;;;5041502;28;20195;-70
2024/03/20 05:51:47;;;;;;;25.85;11.80;;;11.10;99.90;;;;;;5041317;28;20223;-68
2024/03/20 05:54:13;;;;;;;24.65;12.30;;;11.00;99.90;;;;;;5041096;28;20219;-69
2024/03/20 05:56:39;;;;;;;28.42;12.20;;;11.10;99.90;;;;;;5041475;28;20219;-69
2024/03/20 05:59:05;;;;;;;22.05;12.48;;;11.10;99.90;;;;;;5041853;28;20189;-71
2024/03/20 06:01:31;;;;;;;27.63;12.35;;;11.10;99.90;;;;;;5041711;28;20240;-70
2024/03/20 06:03:57;;;;;;;29.35;12.20;;;11.00;99.90;;;;;;5040887;28;20977;-70
2024/03/20 06:06:23;;;;;;;27.02;12.05;;;11.00;99.90;;;;;;5040045;28;20195;-71
2024/03/20 06:08:48;;;;;;;31.40;12.85;;;11.10;99.90;;;;;;5041020;28;20191;-69
2024/03/20 06:11:14;;;;;;;24.67;12.90;;;11.00;99.90;;;;;;5041633;28;20201;-73
2024/03/20 06:13:40;;;;;;;31.38;13.10;;;11.10;99.90;;;;;;5040352;28;20337;-71
2024/03/20 06:16:06;;;;;;;26.40;12.43;;;11.10;99.90;;;;;;5042370;28;20210;-73
2024/03/20 06:18:32;;;;;;;25.85;12.82;;;11.10;99.90;;;;;;5042210;28;20179;-73
2024/03/20 06:20:58;;;;;;;24.80;12.27;;;11.10;99.90;;;;;;5041219;28;20190;-76
2024/03/20 06:23:23;;;;;;;22.95;12.18;;;11.10;99.90;;;;;;5039680;28;20187;-71
2024/03/20 06:25:49;;;;;;;25.80;12.82;;;11.10;99.90;;;;;;5024045;28;20277;-71
2024/03/20 06:28:15;;;;;;;27.83;12.13;;;11.10;99.90;;;;;;5041797;28;20191;-72
2024/03/20 06:30:40;;;;;;;30.20;13.13;;;11.20;99.90;;;;;;5040352;28;20240;-70
2024/03/20 06:33:06;;;;;;;26.77;12.13;;;11.20;99.90;;;;;;5041900;28;20194;-68
2024/03/20 06:35:32;;;;;;;25.85;13.60;;;11.20;99.90;;;;;;5040077;28;20548;-72
2024/03/20 06:38:03;;;;;;;27.27;12.98;;;11.30;99.90;;;;;;5039483;28;20278;-69
2024/03/20 06:40:32;;;;;;;26.83;13.65;;;11.30;99.90;;;;;;5040921;28;20195;-72
2024/03/20 06:43:02;;;;;;;26.02;14.10;;;11.40;99.90;;;;;;5040717;28;20183;-70
2024/03/20 06:45:32;;;;;;;27.98;13.73;;;11.40;99.90;;;;;;5041338;28;20195;-72
2024/03/20 06:47:58;;;;;;;28.80;13.02;;;11.50;99.90;;;;;;5041622;28;20562;-66
2024/03/20 06:50:27;;;;;;;29.45;12.68;;;11.50;99.90;;;;;;5039771;28;20221;-72
2024/03/20 06:52:57;;;;;;;25.30;13.10;;;11.60;99.90;;;;;;5041977;28;20689;-74
2024/03/20 06:55:25;;;;;;;26.77;13.38;;;11.60;99.90;;;;;;5041541;28;20199;-74
2024/03/20 06:57:50;;;;;;;29.25;12.65;;;11.70;99.90;;;;;;5041112;28;20207;-67
2024/03/20 07:00:19;;;;;;;26.90;13.15;;;11.70;99.90;;;;;;5040899;28;20215;-70
2024/03/20 07:02:46;;;;;;;29.45;15.13;;;11.80;99.90;;;;;;5040516;28;20183;-72
2024/03/20 07:05:16;;;;;;;32.63;13.05;;;11.80;99.90;;;;;;5041110;28;20647;-73
2024/03/20 07:07:42;;;;;;;21.90;12.32;;;11.90;99.90;;;;;;5039696;28;20633;-72
2024/03/20 07:10:09;;;;;;;29.48;16.20;;;11.90;99.90;;;;;;5040659;28;20195;-71
2024/03/20 07:12:35;;;;;;;33.78;18.98;;;12.00;99.90;;;;;;5039012;28;20218;-69
2024/03/20 07:15:08;;;;;;;36.45;20.15;;;12.00;99.90;;;;;;5040726;28;20204;-70
2024/03/20 07:17:38;;;;;;;27.05;12.93;;;12.00;99.90;;;;;;5040144;28;20274;-73
2024/03/20 07:20:09;;;;;;;26.83;12.68;;;12.10;99.90;;;;;;5040907;28;20218;-71
2024/03/20 07:22:38;;;;;;;28.88;13.15;;;12.10;99.90;;;;;;5040801;28;20273;-73
2024/03/20 07:25:07;;;;;;;25.17;13.45;;;12.20;99.90;;;;;;5040440;28;21198;-69
2024/03/20 07:27:34;;;;;;;25.13;12.40;;;12.30;99.90;;;;;;5038803;28;21102;-68
2024/03/20 07:30:01;;;;;;;23.55;12.95;;;12.30;99.90;;;;;;5022878;28;20274;-70
2024/03/20 07:32:27;;;;;;;21.63;12.52;;;12.40;99.90;;;;;;5040204;28;20801;-71
2024/03/20 07:34:53;;;;;;;28.30;13.98;;;12.40;99.90;;;;;;5039464;28;20233;-73
2024/03/20 07:37:19;;;;;;;27.35;13.00;;;12.40;99.90;;;;;;5040671;28;20233;-69
2024/03/20 07:39:44;;;;;;;26.02;12.95;;;12.50;99.90;;;;;;5040368;28;20192;-71
2024/03/20 07:42:10;;;;;;;31.20;12.90;;;12.50;99.90;;;;;;5042065;28;20179;-69
2024/03/20 07:44:36;;;;;;;29.40;13.05;;;12.60;99.90;;;;;;5042437;28;20179;-67
2024/03/20 07:47:03;;;;;;;28.50;12.80;;;12.60;99.90;;;;;;5043849;28;20206;-73
2024/03/20 07:49:29;;;;;;;27.63;12.52;;;12.70;99.90;;;;;;5043989;28;20313;-70
2024/03/20 07:51:55;;;;;;;23.73;13.07;;;12.70;99.90;;;;;;5042823;28;20274;-73
2024/03/20 07:54:24;;;;;;;31.80;14.07;;;12.80;99.90;;;;;;5044106;28;20230;-70
2024/03/20 07:56:54;;;;;;;29.48;13.65;;;12.80;99.90;;;;;;5043475;28;20229;-72
2024/03/20 07:59:25;;;;;;;23.48;12.05;;;12.80;99.90;;;;;;5041929;28;20222;-71
2024/03/20 08:01:51;;;;;;;27.83;12.90;;;12.90;99.90;;;;;;5043226;28;20195;-70
2024/03/20 08:04:18;;;;;;;31.02;13.32;;;13.00;99.90;;;;;;5043453;28;20575;-69
2024/03/20 08:06:44;;;;;;;22.30;11.95;;;13.00;99.90;;;;;;5043018;28;20198;-71
2024/03/20 08:09:11;;;;;;;23.27;12.20;;;13.10;99.90;;;;;;5043392;28;20251;-69
2024/03/20 08:11:37;;;;;;;20.52;11.63;;;13.20;99.90;;;;;;5043082;28;20341;-71
2024/03/20 08:14:08;;;;;;;27.05;12.40;;;13.20;99.90;;;;;;5043194;28;20556;-70
2024/03/20 08:16:37;;;;;;;23.42;11.80;;;13.30;99.90;;;;;;5043374;28;20218;-72
2024/03/20 08:19:06;;;;;;;22.67;12.23;;;13.40;99.90;;;;;;5025505;28;20180;-70
2024/03/20 08:21:35;;;;;;;29.42;12.32;;;13.50;99.90;;;;;;5023052;28;20195;-72
2024/03/20 08:24:04;;;;;;;23.27;11.65;;;13.60;99.90;;;;;;5042996;28;20215;-72
2024/03/20 08:26:30;;;;;;;24.73;12.10;;;13.60;99.90;;;;;;5043371;28;20195;-71
2024/03/20 08:28:56;;;;;;;20.25;11.45;;;13.70;99.90;;;;;;5043249;28;20195;-70
2024/03/20 08:31:22;;;;;;;21.25;12.40;;;13.80;99.90;;;;;;5043392;28;20203;-68
2024/03/20 08:33:48;;;;;;;24.00;11.52;;;13.90;99.90;;;;;;5042623;28;20183;-71
2024/03/20 08:36:14;;;;;;;22.23;12.18;;;14.00;99.90;;;;;;5042743;28;20229;-73
2024/03/20 08:38:40;;;;;;;22.35;11.25;;;14.10;99.90;;;;;;5042803;28;20183;-71
2024/03/20 08:41:06;;;;;;;23.15;11.93;;;14.20;99.90;;;;;;5043176;28;20204;-70
2024/03/20 08:43:33;;;;;;;26.27;11.27;;;14.20;99.90;;;;;;5042245;28;20184;-71
2024/03/20 08:46:08;;;;;;;23.63;11.98;;;14.30;99.90;;;;;;5042586;28;20213;-69
2024/03/20 08:48:34;;;;;;;24.85;11.40;;;14.40;99.90;;;;;;5042689;28;20199;-71
2024/03/20 08:50:59;;;;;;;25.25;11.50;;;14.50;99.90;;;;;;5042662;28;20195;-72
2024/03/20 08:53:27;;;;;;;25.25;10.88;;;14.50;99.90;;;;;;5057331;28;20198;-71
2024/03/20 08:55:52;;;;;;;23.85;10.75;;;14.60;99.90;;;;;;5042391;28;20356;-71
2024/03/20 08:58:18;;;;;;;23.52;10.20;;;14.70;99.90;;;;;;5040359;28;20580;-71
2024/03/20 09:00:46;;;;;;;28.55;10.20;;;14.70;99.90;;;;;;5041537;28;20195;-72
2024/03/20 09:03:11;;;;;;;19.42;9.43;;;14.80;99.90;;;;;;5043046;28;20578;-71
2024/03/20 09:05:39;;;;;;;22.10;10.50;;;14.80;99.90;;;;;;5042677;28;20294;-70
2024/03/20 09:08:07;;;;;;;18.30;9.07;;;14.80;99.90;;;;;;5041225;28;20195;-69
2024/03/20 09:10:33;;;;;;;20.75;10.05;;;14.90;99.90;;;;;;5042012;28;20576;-69
2024/03/20 09:12:58;;;;;;;24.15;9.50;;;15.00;99.90;;;;;;5040916;28;20226;-70
2024/03/20 09:15:24;;;;;;;21.02;9.65;;;15.10;99.90;;;;;;5042668;28;20199;-68
2024/03/20 09:17:52;;;;;;;19.98;8.60;;;15.10;99.90;;;;;;5042546;28;21051;-69
2024/03/20 09:20:25;;;;;;;19.42;9.23;;;15.30;99.90;;;;;;5040988;28;20206;-70
2024/03/20 09:22:52;;;;;;;21.33;9.27;;;15.30;99.90;;;;;;5042454;28;20198;-72
2024/03/20 09:25:19;;;;;;;23.30;8.77;;;15.40;99.90;;;;;;5042525;28;20719;-71
2024/03/20 09:27:45;;;;;;;18.27;9.10;;;15.50;99.90;;;;;;5042428;28;20525;-73
2024/03/20 09:30:15;;;;;;;35.30;11.73;;;15.50;99.90;;;;;;5042069;28;20210;-73
2024/03/20 09:32:45;;;;;;;26.30;9.65;;;15.60;99.90;;;;;;5024576;28;20198;-68
2024/03/20 09:35:12;;;;;;;22.88;8.85;;;15.60;99.90;;;;;;5042154;28;20250;-70
2024/03/20 09:37:38;;;;;;;17.67;8.43;;;15.60;99.90;;;;;;5041522;28;20791;-69
2024/03/20 09:40:11;;;;;;;20.73;7.72;;;15.80;99.90;;;;;;5042032;28;20668;-70
2024/03/20 09:42:40;;;;;;;19.67;8.68;;;15.80;99.90;;;;;;5041664;28;20659;-70
2024/03/20 09:45:07;;;;;;;23.17;8.57;;;15.80;99.90;;;;;;5041061;28;20202;-69
2024/03/20 09:47:33;;;;;;;20.15;8.40;;;15.90;99.90;;;;;;5040092;28;20272;-71
2024/03/20 09:49:59;;;;;;;18.70;8.43;;;16.00;99.90;;;;;;5033827;28;20194;-70
2024/03/20 09:52:25;;;;;;;18.40;8.30;;;16.10;99.90;;;;;;5040009;28;20206;-71
2024/03/20 09:54:53;;;;;;;18.30;7.90;;;16.10;99.90;;;;;;5040517;28;21397;-72
2024/03/20 09:57:22;;;;;;;15.88;8.07;;;16.20;99.90;;;;;;5040079;28;20219;-74
2024/03/20 09:59:50;;;;;;;16.55;7.70;;;16.30;99.90;;;;;;5041103;28;20221;-69
2024/03/20 10:02:16;;;;;;;19.95;7.72;;;16.40;99.90;;;;;;5041658;28;20423;-68
2024/03/20 10:04:41;;;;;;;14.65;7.38;;;16.50;99.90;;;;;;5040335;28;20194;-70
2024/03/20 10:07:14;;;;;;;21.77;7.93;;;16.60;99.90;;;;;;5041729;28;20187;-71
2024/03/20 10:09:41;;;;;;;19.30;8.25;;;16.60;99.90;;;;;;5041579;28;20241;-71
2024/03/20 10:12:09;;;;;;;15.15;7.65;;;16.60;99.90;;;;;;5039454;28;20588;-72
2024/03/20 10:14:35;;;;;;;22.38;8.70;;;16.70;99.90;;;;;;5040984;28;20201;-72
2024/03/20 10:17:14;;;;;;;20.83;8.70;;;16.60;99.90;;;;;;5041106;28;20242;-69
2024/03/20 10:19:41;;;;;;;24.67;8.85;;;16.60;99.90;;;;;;5041252;28;20230;-73
2024/03/20 10:22:07;;;;;;;19.42;8.25;;;16.60;99.90;;;;;;5041161;28;20186;-71
2024/03/20 10:24:34;;;;;;;17.35;8.32;;;16.60;99.90;;;;;;5041043;28;20546;-72
2024/03/20 10:27:03;;;;;;;18.48;8.60;;;16.60;99.90;;;;;;5040507;28;20233;-69
2024/03/20 10:29:35;;;;;;;20.38;9.57;;;16.70;99.90;;;;;;5040950;28;20206;-69
2024/03/20 10:32:02;;;;;;;20.33;8.95;;;16.70;99.90;;;;;;5039133;28;20292;-70
2024/03/20 10:34:28;;;;;;;19.02;9.45;;;16.60;99.90;;;;;;5039856;28;20190;-73
2024/03/20 10:36:55;;;;;;;22.02;10.70;;;16.70;99.90;;;;;;5040461;28;20221;-71
2024/03/20 10:39:27;;;;;;;19.02;11.10;;;16.70;99.90;;;;;;5040547;28;20191;-69
2024/03/20 10:41:56;;;;;;;26.52;11.18;;;16.70;99.90;;;;;;5040432;28;20192;-69
2024/03/20 10:44:23;;;;;;;23.25;10.73;;;16.70;99.90;;;;;;5040556;28;20186;-70
2024/03/20 10:46:51;;;;;;;28.33;10.98;;;16.70;99.90;;;;;;5040766;28;20553;-70
2024/03/20 10:49:20;;;;;;;21.77;11.35;;;16.70;99.90;;;;;;5040998;28;20540;-70
2024/03/20 10:51:50;;;;;;;24.75;11.73;;;16.70;99.90;;;;;;5040541;28;20241;-71
2024/03/20 10:54:18;;;;;;;28.65;12.93;;;16.70;99.90;;;;;;5035884;28;20195;-70
2024/03/20 10:56:46;;;;;;;24.15;12.02;;;16.70;99.90;;;;;;5040687;28;20577;-70
2024/03/20 10:59:19;;;;;;;21.83;11.63;;;16.70;99.90;;;;;;5040593;28;20206;-71
2024/03/20 11:02:03;;;;;;;22.60;12.48;;;16.80;99.90;;;;;;5025887;28;20190;-71
2024/03/20 11:04:39;;;;;;;24.60;14.25;;;16.80;99.90;;;;;;5040721;28;20539;-70
2024/03/20 11:07:23;;;;;;;26.90;13.60;;;17.00;99.90;;;;;;5040634;28;20549;-73
2024/03/20 11:09:52;;;;;;;28.17;15.57;;;17.00;99.90;;;;;;5038994;28;20975;-70
2024/03/20 11:12:33;;;;;;;33.08;16.13;;;17.00;99.90;;;;;;5039988;28;20229;-70
2024/03/20 11:15:02;;;;;;;32.85;16.08;;;17.10;99.90;;;;;;5041436;28;20195;-70
2024/03/20 11:17:32;;;;;;;27.40;16.80;;;17.10;99.90;;;;;;5044385;28;20207;-70
2024/03/20 11:19:58;;;;;;;34.30;17.48;;;17.00;99.90;;;;;;5044485;28;20214;-71
2024/03/20 11:22:24;;;;;;;27.90;16.48;;;17.00;99.90;;;;;;5044004;28;20183;-71
2024/03/20 11:24:53;;;;;;;32.88;17.58;;;17.00;99.90;;;;;;5044131;28;20324;-70
2024/03/20 11:27:22;;;;;;;29.77;16.05;;;16.90;99.90;;;;;;5044534;28;20187;-70
2024/03/20 11:29:49;;;;;;;33.45;16.55;;;16.90;99.90;;;;;;5044130;28;20195;-67
2024/03/20 11:32:19;;;;;;;30.20;16.42;;;17.00;99.90;;;;;;5042969;28;20202;-72
2024/03/20 11:34:45;;;;;;;31.45;16.98;;;17.00;99.90;;;;;;5043716;28;20195;-71
2024/03/20 11:37:14;;;;;;;33.80;17.15;;;17.10;99.90;;;;;;5042825;28;20207;-71
2024/03/20 11:39:41;;;;;;;34.85;17.50;;;17.10;99.90;;;;;;5043342;28;20187;-70
2024/03/20 11:42:07;;;;;;;30.13;17.40;;;17.20;99.90;;;;;;5042502;28;20628;-71
2024/03/20 11:44:33;;;;;;;33.03;17.05;;;17.20;99.90;;;;;;5043752;28;20191;-71
2024/03/20 11:47:00;;;;;;;29.58;16.90;;;17.20;99.90;;;;;;5043629;28;20202;-72
2024/03/20 11:49:26;;;;;;;34.08;17.30;;;17.20;99.90;;;;;;5044540;28;20254;-69
2024/03/20 11:51:52;;;;;;;32.72;18.17;;;17.30;99.90;;;;;;5044288;28;20694;-68
2024/03/20 11:54:21;;;;;;;30.80;17.25;;;17.30;99.90;;;;;;5043055;28;20210;-69
2024/03/20 11:56:47;;;;;;;31.83;17.38;;;17.30;99.90;;;;;;5043175;28;20203;-73
2024/03/20 11:59:13;;;;;;;30.52;17.60;;;17.30;99.90;;;;;;5043591;28;20667;-71
2024/03/20 12:01:39;;;;;;;31.60;16.83;;;17.30;99.90;;;;;;5043490;28;20200;-69
2024/03/20 12:04:05;;;;;;;24.52;16.00;;;17.30;99.90;;;;;;5042982;28;20219;-70
2024/03/20 12:06:37;;;;;;;31.88;17.45;;;17.30;99.90;;;;;;5043324;28;20199;-71
2024/03/20 12:09:16;;;;;;;30.75;16.05;;;17.40;99.90;;;;;;5043220;28;20191;-72
2024/03/20 12:11:42;;;;;;;28.75;15.77;;;17.30;99.90;;;;;;5043472;28;20190;-71
2024/03/20 12:14:10;;;;;;;27.83;16.15;;;17.40;99.90;;;;;;5043455;28;20293;-69
2024/03/20 12:16:36;;;;;;;31.30;16.75;;;17.40;99.90;;;;;;5042256;28;20264;-70
2024/03/20 12:19:03;;;;;;;30.30;17.02;;;17.40;99.90;;;;;;5043091;28;20221;-69
2024/03/20 12:21:29;;;;;;;30.13;16.75;;;17.30;99.90;;;;;;5043438;28;20227;-70
2024/03/20 12:23:55;;;;;;;33.17;17.05;;;17.40;99.90;;;;;;5040976;28;20229;-71
2024/03/20 12:26:22;;;;;;;30.23;18.30;;;17.40;99.90;;;;;;5043033;28;20195;-69
2024/03/20 12:28:49;;;;;;;34.92;17.17;;;17.40;99.90;;;;;;5042778;28;20286;-69